^^
Station Historical Data
Daily Summary for February 10, 2019 Units:  English    Metric   Both
« Previous Day
Next Day »
Daily Weekly Monthly Yearly Custom
  High: Low: Average:
Temperature: 0.6 °F -9.7 °F -5.4 °F
Dew Point: -4.9 °F -13.9 °F -9.8 °F
Humidity: 84% 75% 81%
Wind Speed: 16.0mph 0.0mph 7.7mph
Wind Gust: 19.0mph - -
Wind- - ENE
Pressure: 30.60 in 30.28 in -
Precipitation: 0.18 in    
Historical Graphs
 
 
Tabular Data for February 10, 2019
Time Temperature Dew Point Pressure Wind Wind Speed Wind Gust Humidity Rainfall Rate (Hourly) solar Conditions
00:04 -9.6 °F -13.8 °F 30.60 in East 9.0 mph 12.0 mph 81% 0.00 in 0.00 W/m2
00:09 -9.6 °F -13.8 °F 30.60 in ENE 10.0 mph 12.0 mph 81% 0.00 in 0.00 W/m2
00:14 -9.6 °F -13.8 °F 30.60 in ENE 5.0 mph 12.0 mph 81% 0.00 in 0.00 W/m2
00:19 -9.7 °F -13.9 °F 30.59 in ENE 9.0 mph 11.0 mph 81% 0.00 in 0.00 W/m2
00:24 -9.7 °F -13.9 °F 30.59 in ENE 7.0 mph 11.0 mph 81% 0.00 in 0.00 W/m2
00:29 -9.6 °F -13.8 °F 30.59 in ENE 5.0 mph 11.0 mph 81% 0.00 in 0.00 W/m2
00:34 -9.6 °F -13.6 °F 30.59 in ENE 8.0 mph 11.0 mph 82% 0.00 in 0.00 W/m2
00:39 -9.7 °F -13.7 °F 30.59 in ENE 8.0 mph 11.0 mph 82% 0.00 in 0.00 W/m2
00:44 -9.6 °F -13.6 °F 30.58 in ENE 12.0 mph 15.0 mph 82% 0.00 in 0.00 W/m2
00:49 -9.6 °F -13.6 °F 30.58 in ENE 7.0 mph 15.0 mph 82% 0.00 in 0.00 W/m2
00:54 -9.5 °F -13.5 °F 30.58 in ENE 8.0 mph 13.0 mph 82% 0.00 in 0.00 W/m2
00:59 -9.5 °F -13.5 °F 30.58 in ENE 8.0 mph 13.0 mph 82% 0.00 in 0.00 W/m2
01:04 -9.4 °F -13.4 °F 30.58 in ENE 5.0 mph 12.0 mph 82% 0.00 in 0.00 W/m2
01:09 -9.4 °F -13.4 °F 30.59 in ENE 8.0 mph 12.0 mph 82% 0.00 in 0.00 W/m2
01:14 -9.3 °F -13.3 °F 30.59 in East 7.0 mph 11.0 mph 82% 0.00 in 0.00 W/m2
01:19 -9.1 °F -13.1 °F 30.59 in ENE 7.0 mph 10.0 mph 82% 0.00 in 0.00 W/m2
01:24 -9.1 °F -13.1 °F 30.59 in NE 5.0 mph 10.0 mph 82% 0.00 in 0.00 W/m2
01:29 -9.0 °F -13.0 °F 30.58 in NE 9.0 mph 11.0 mph 82% 0.00 in 0.00 W/m2
01:34 -8.9 °F -12.9 °F 30.58 in ENE 7.0 mph 12.0 mph 82% 0.00 in 0.00 W/m2
01:39 -8.9 °F -12.9 °F 30.58 in ENE 9.0 mph 12.0 mph 82% 0.00 in 0.00 W/m2
01:44 -8.9 °F -12.9 °F 30.57 in ENE 7.0 mph 10.0 mph 82% 0.00 in 0.00 W/m2
01:49 -8.9 °F -12.9 °F 30.57 in ENE 4.0 mph 10.0 mph 82% 0.00 in 0.00 W/m2
01:54 -8.8 °F -12.8 °F 30.56 in NE 7.0 mph 11.0 mph 82% 0.00 in 0.00 W/m2
01:59 -8.8 °F -12.8 °F 30.56 in ENE 3.0 mph 11.0 mph 82% 0.00 in 0.00 W/m2
02:04 -8.8 °F -12.8 °F 30.56 in NE 7.0 mph 11.0 mph 82% 0.00 in 0.00 W/m2
02:09 -8.8 °F -12.8 °F 30.56 in NE 7.0 mph 11.0 mph 82% 0.00 in 0.00 W/m2
02:14 -8.8 °F -12.8 °F 30.56 in ENE 5.0 mph 10.0 mph 82% 0.00 in 0.00 W/m2
02:19 -8.7 °F -12.7 °F 30.56 in ENE 4.0 mph 10.0 mph 82% 0.00 in 0.00 W/m2
02:24 -8.7 °F -12.7 °F 30.55 in ENE 8.0 mph 9.0 mph 82% 0.00 in 0.00 W/m2
02:29 -8.7 °F -12.7 °F 30.55 in ENE 5.0 mph 9.0 mph 82% 0.00 in 0.00 W/m2
02:34 -8.6 °F -12.6 °F 30.55 in NE 5.0 mph 9.0 mph 82% 0.00 in 0.00 W/m2
02:39 -8.5 °F -12.5 °F 30.55 in NE 5.0 mph 9.0 mph 82% 0.00 in 0.00 W/m2
02:44 -8.5 °F -12.5 °F 30.55 in ENE 7.0 mph 8.0 mph 82% 0.00 in 0.00 W/m2
02:49 -8.7 °F -12.7 °F 30.55 in ENE 9.0 mph 9.0 mph 82% 0.00 in 0.00 W/m2
02:54 -8.7 °F -12.7 °F 30.55 in ENE 4.0 mph 10.0 mph 82% 0.00 in 0.00 W/m2
02:59 -8.7 °F -12.7 °F 30.55 in ENE 5.0 mph 10.0 mph 82% 0.00 in 0.00 W/m2
03:04 -8.6 °F -12.6 °F 30.54 in NE 5.0 mph 10.0 mph 82% 0.00 in 0.00 W/m2
03:09 -8.5 °F -12.3 °F 30.54 in ENE 8.0 mph 10.0 mph 83% 0.00 in 0.00 W/m2
03:14 -8.3 °F -12.1 °F 30.54 in NE 8.0 mph 11.0 mph 83% 0.00 in 0.00 W/m2
03:19 -8.2 °F -12.0 °F 30.54 in NE 5.0 mph 11.0 mph 83% 0.00 in 0.00 W/m2
03:24 -8.1 °F -11.9 °F 30.54 in East 6.0 mph 9.0 mph 83% 0.00 in 0.00 W/m2
03:29 -8.0 °F -11.8 °F 30.54 in ENE 4.0 mph 9.0 mph 83% 0.00 in 0.00 W/m2
03:34 -7.8 °F -11.6 °F 30.54 in NE 6.0 mph 8.0 mph 83% 0.00 in 0.00 W/m2
03:39 -7.7 °F -11.5 °F 30.53 in NE 4.0 mph 8.0 mph 83% 0.00 in 0.00 W/m2
03:44 -7.6 °F -11.4 °F 30.54 in ENE 4.0 mph 8.0 mph 83% 0.00 in 0.00 W/m2
03:49 -7.5 °F -11.3 °F 30.53 in NE 6.0 mph 9.0 mph 83% 0.00 in 0.00 W/m2
03:54 -7.3 °F -11.1 °F 30.53 in ENE 8.0 mph 9.0 mph 83% 0.00 in 0.00 W/m2
03:59 -7.3 °F -11.1 °F 30.53 in NE 7.0 mph 9.0 mph 83% 0.00 in 0.00 W/m2
04:04 -7.2 °F -11.0 °F 30.53 in NE 8.0 mph 10.0 mph 83% 0.00 in 0.00 W/m2
04:09 -7.1 °F -10.9 °F 30.52 in NE 11.0 mph 12.0 mph 83% 0.00 in 0.00 W/m2
04:14 -7.1 °F -10.9 °F 30.52 in NE 9.0 mph 12.0 mph 83% 0.00 in 0.00 W/m2
04:19 -7.0 °F -10.8 °F 30.52 in NE 10.0 mph 12.0 mph 83% 0.00 in 0.00 W/m2
04:24 -7.1 °F -10.9 °F 30.52 in NE 7.0 mph 12.0 mph 83% 0.00 in 0.00 W/m2
04:29 -7.2 °F -11.0 °F 30.52 in NE 5.0 mph 12.0 mph 83% 0.00 in 0.00 W/m2
04:34 -7.3 °F -11.1 °F 30.51 in ENE 4.0 mph 9.0 mph 83% 0.00 in 0.00 W/m2
04:39 -7.3 °F -11.1 °F 30.51 in ENE 7.0 mph 9.0 mph 83% 0.00 in 0.00 W/m2
04:44 -7.3 °F -11.1 °F 30.51 in ENE 8.0 mph 10.0 mph 83% 0.00 in 0.00 W/m2
04:49 -7.5 °F -11.3 °F 30.51 in ENE 5.0 mph 10.0 mph 83% 0.00 in 0.00 W/m2
04:54 -7.5 °F -11.3 °F 30.51 in NE 6.0 mph 10.0 mph 83% 0.00 in 0.00 W/m2
04:59 -7.5 °F -11.3 °F 30.52 in ENE 4.0 mph 10.0 mph 83% 0.00 in 0.00 W/m2
05:04 -7.5 °F -11.3 °F 30.52 in NE 5.0 mph 10.0 mph 83% 0.00 in 0.00 W/m2
05:09 -7.5 °F -11.3 °F 30.51 in ENE 4.0 mph 9.0 mph 83% 0.00 in 0.00 W/m2
05:14 -7.5 °F -11.3 °F 30.50 in ENE 5.0 mph 10.0 mph 83% 0.00 in 0.00 W/m2
05:19 -7.4 °F -11.2 °F 30.51 in ENE 4.0 mph 10.0 mph 83% 0.00 in 0.00 W/m2
05:24 -7.3 °F -11.1 °F 30.51 in East 6.0 mph 10.0 mph 83% 0.00 in 0.00 W/m2
05:29 -7.2 °F -11.0 °F 30.51 in ESE 3.0 mph 10.0 mph 83% 0.00 in 0.00 W/m2
05:34 -7.2 °F -11.0 °F 30.51 in East 6.0 mph 9.0 mph 83% 0.00 in 0.00 W/m2
05:39 -7.2 °F -11.0 °F 30.51 in East 5.0 mph 8.0 mph 83% 0.00 in 0.00 W/m2
05:44 -7.2 °F -11.0 °F 30.51 in ENE 2.0 mph 8.0 mph 83% 0.00 in 0.00 W/m2
05:49 -7.2 °F -11.0 °F 30.50 in ENE 8.0 mph 9.0 mph 83% 0.00 in 0.00 W/m2
05:54 -7.1 °F -10.9 °F 30.49 in ENE 9.0 mph 9.0 mph 83% 0.00 in 0.00 W/m2
05:59 -7.1 °F -10.9 °F 30.49 in ENE 5.0 mph 11.0 mph 83% 0.00 in 0.00 W/m2
06:04 -7.1 °F -10.9 °F 30.50 in NE 5.0 mph 11.0 mph 83% 0.00 in 0.00 W/m2
06:09 -7.1 °F -10.9 °F 30.49 in ENE 8.0 mph 9.0 mph 83% 0.00 in 0.00 W/m2
06:14 -7.2 °F -11.2 °F 30.49 in NE 3.0 mph 9.0 mph 82% 0.00 in 0.00 W/m2
06:19 -7.1 °F -11.1 °F 30.49 in ENE 5.0 mph 9.0 mph 82% 0.00 in 0.00 W/m2
06:24 -7.2 °F -11.2 °F 30.50 in ENE 4.0 mph 8.0 mph 82% 0.00 in 0.00 W/m2
06:29 -7.2 °F -11.2 °F 30.50 in ENE 5.0 mph 8.0 mph 82% 0.00 in 0.00 W/m2
06:34 -7.2 °F -11.2 °F 30.50 in ENE 3.0 mph 8.0 mph 82% 0.00 in 0.00 W/m2
06:39 -7.3 °F -11.3 °F 30.52 in East 5.0 mph 7.0 mph 82% 0.00 in 0.00 W/m2
06:44 -7.3 °F -11.3 °F 30.51 in ENE 2.0 mph 5.0 mph 82% 0.00 in 0.00 W/m2
06:49 -7.3 °F -11.3 °F 30.50 in East 2.0 mph 6.0 mph 82% 0.00 in 0.00 W/m2
06:54 -7.3 °F -11.3 °F 30.50 in ENE 3.0 mph 6.0 mph 82% 0.00 in 0.00 W/m2
06:59 -7.3 °F -11.3 °F 30.50 in ENE 3.0 mph 6.0 mph 82% 0.00 in 0.00 W/m2
07:04 -7.2 °F -11.2 °F 30.50 in NE 4.0 mph 5.0 mph 82% 0.00 in 0.00 W/m2
07:09 -7.2 °F -11.2 °F 30.50 in NE 5.0 mph 6.0 mph 82% 0.00 in 0.00 W/m2
07:14 -7.1 °F -11.1 °F 30.50 in NE 4.0 mph 7.0 mph 82% 0.00 in 0.00 W/m2
07:19 -7.1 °F -11.1 °F 30.50 in NE 6.0 mph 7.0 mph 82% 0.00 in 0.00 W/m2
07:24 -7.1 °F -11.1 °F 30.49 in NE 6.0 mph 7.0 mph 82% 0.00 in 0.00 W/m2
07:29 -7.1 °F -11.1 °F 30.50 in NE 5.0 mph 7.0 mph 82% 0.00 in 0.00 W/m2
07:34 -7.0 °F -11.0 °F 30.50 in NNE 3.0 mph 6.0 mph 82% 0.00 in 0.00 W/m2
07:39 -7.0 °F -11.0 °F 30.50 in NE 6.0 mph 7.0 mph 82% 0.00 in 0.00 W/m2
07:44 -7.0 °F -11.0 °F 30.50 in NE 7.0 mph 10.0 mph 82% 0.00 in 0.00 W/m2
07:49 -7.1 °F -11.1 °F 30.49 in NNE 6.0 mph 10.0 mph 82% 0.00 in 0.00 W/m2
07:54 -7.2 °F -11.2 °F 30.49 in NE 6.0 mph 8.0 mph 82% 0.00 in 0.00 W/m2
07:59 -7.2 °F -11.2 °F 30.49 in NNE 10.0 mph 10.0 mph 82% 0.00 in 0.00 W/m2
08:04 -7.2 °F -11.2 °F 30.49 in NE 6.0 mph 11.0 mph 82% 0.00 in 5.00 W/m2
08:09 -7.3 °F -11.3 °F 30.49 in NNE 7.0 mph 11.0 mph 82% 0.00 in 7.00 W/m2
08:14 -7.3 °F -11.3 °F 30.49 in NNE 7.0 mph 11.0 mph 82% 0.00 in 11.00 W/m2
08:19 -7.2 °F -11.2 °F 30.49 in NNE 8.0 mph 11.0 mph 82% 0.00 in 14.00 W/m2
08:24 -7.2 °F -11.2 °F 30.49 in NNE 8.0 mph 10.0 mph 82% 0.00 in 16.00 W/m2
08:29 -7.1 °F -11.1 °F 30.49 in NNE 5.0 mph 11.0 mph 82% 0.00 in 19.00 W/m2
08:34 -7.0 °F -11.0 °F 30.50 in NNE 5.0 mph 11.0 mph 82% 0.00 in 23.00 W/m2
08:39 -6.8 °F -10.9 °F 30.50 in NE 3.0 mph 10.0 mph 82% 0.00 in 25.00 W/m2
08:44 -6.7 °F -10.8 °F 30.50 in Calm   6.0 mph 82% 0.00 in 26.00 W/m2
08:49 -6.6 °F -10.7 °F 30.51 in NNE 3.0 mph 6.0 mph 82% 0.00 in 26.00 W/m2
08:54 -6.6 °F -10.7 °F 30.51 in NNE 3.0 mph 7.0 mph 82% 0.00 in 28.00 W/m2
08:59 -6.6 °F -10.7 °F 30.51 in NE 6.0 mph 7.0 mph 82% 0.00 in 30.00 W/m2
09:04 -6.7 °F -11.0 °F 30.51 in NNE 3.0 mph 7.0 mph 81% 0.00 in 33.00 W/m2
09:09 -6.7 °F -11.0 °F 30.51 in NE 6.0 mph 8.0 mph 81% 0.00 in 42.00 W/m2
09:14 -6.8 °F -11.1 °F 30.51 in NE 4.0 mph 8.0 mph 81% 0.00 in 51.00 W/m2
09:19 -6.8 °F -11.1 °F 30.51 in NE 4.0 mph 8.0 mph 81% 0.00 in 53.00 W/m2
09:24 -6.7 °F -11.0 °F 30.51 in NE 6.0 mph 6.0 mph 81% 0.00 in 53.00 W/m2
09:29 -6.7 °F -11.0 °F 30.50 in NE 6.0 mph 8.0 mph 81% 0.00 in 54.00 W/m2
09:34 -6.6 °F -10.9 °F 30.50 in NE 5.0 mph 8.0 mph 81% 0.00 in 56.00 W/m2
09:39 -6.5 °F -10.8 °F 30.50 in NE 6.0 mph 9.0 mph 81% 0.00 in 62.00 W/m2
09:44 -6.4 °F -10.7 °F 30.50 in ENE 7.0 mph 9.0 mph 81% 0.00 in 69.00 W/m2
09:49 -6.2 °F -10.5 °F 30.50 in NE 5.0 mph 9.0 mph 81% 0.00 in 76.00 W/m2
09:54 -6.1 °F -10.4 °F 30.50 in NE 4.0 mph 8.0 mph 81% 0.00 in 81.00 W/m2
09:59 -6.0 °F -10.3 °F 30.49 in NE 4.0 mph 8.0 mph 81% 0.00 in 86.00 W/m2
10:04 -5.9 °F -10.2 °F 30.49 in ENE 5.0 mph 8.0 mph 81% 0.00 in 90.00 W/m2
10:09 -5.7 °F -10.0 °F 30.49 in NE 6.0 mph 8.0 mph 81% 0.00 in 91.00 W/m2
10:14 -5.5 °F -9.8 °F 30.49 in NE 3.0 mph 8.0 mph 81% 0.00 in 97.00 W/m2
10:19 -5.4 °F -9.7 °F 30.49 in NE 4.0 mph 8.0 mph 81% 0.00 in 104.00 W/m2
10:24 -5.2 °F -9.5 °F 30.48 in NE 6.0 mph 9.0 mph 81% 0.00 in 111.00 W/m2
10:29 -4.9 °F -9.2 °F 30.49 in East 5.0 mph 9.0 mph 81% 0.00 in 121.00 W/m2
10:34 -4.7 °F -9.3 °F 30.49 in NE 7.0 mph 9.0 mph 80% 0.18 in 134.00 W/m2
10:39 -4.4 °F -9.0 °F 30.49 in ENE 7.0 mph 9.0 mph 80% 0.18 in 130.00 W/m2
10:44 -4.3 °F -8.9 °F 30.48 in NE 4.0 mph 9.0 mph 80% 0.18 in 128.00 W/m2
10:49 -4.0 °F -8.6 °F 30.48 in NE 8.0 mph 9.0 mph 80% 0.18 in 146.00 W/m2
10:54 -3.7 °F -8.3 °F 30.47 in East 7.0 mph 10.0 mph 80% 0.18 in 144.00 W/m2
10:59 -4.0 °F -8.9 °F 30.47 in NE 9.0 mph 10.0 mph 79% 0.18 in 144.00 W/m2
11:04 -3.8 °F -8.7 °F 30.47 in ENE 4.0 mph 12.0 mph 79% 0.18 in 178.00 W/m2
11:09 -3.4 °F -8.3 °F 30.47 in ENE 7.0 mph 12.0 mph 79% 0.18 in 179.00 W/m2
11:14 -3.3 °F -8.2 °F 30.47 in NE 6.0 mph 10.0 mph 79% 0.18 in 169.00 W/m2
11:19 -2.9 °F -7.8 °F 30.47 in ENE 7.0 mph 10.0 mph 79% 0.18 in 193.00 W/m2
11:24 -2.6 °F -7.5 °F 30.47 in ENE 5.0 mph 10.0 mph 79% 0.18 in 188.00 W/m2
11:29 -3.1 °F -8.3 °F 30.47 in ENE 9.0 mph 11.0 mph 78% 0.18 in 181.00 W/m2
11:34 -2.8 °F -7.7 °F 30.46 in East 8.0 mph 11.0 mph 79% 0.00 in 176.00 W/m2
11:39 -2.5 °F -7.7 °F 30.46 in ENE 11.0 mph 11.0 mph 78% 0.00 in 243.00 W/m2
11:44 -2.3 °F -7.5 °F 30.46 in East 8.0 mph 11.0 mph 78% 0.00 in 244.00 W/m2
11:49 -1.8 °F -7.0 °F 30.46 in East 10.0 mph 13.0 mph 78% 0.00 in 237.00 W/m2
11:54 -1.3 °F -6.5 °F 30.46 in East 9.0 mph 13.0 mph 78% 0.00 in 297.00 W/m2
11:59 -1.4 °F -6.9 °F 30.46 in East 10.0 mph 13.0 mph 77% 0.00 in 176.00 W/m2
12:04 -2.2 °F -7.9 °F 30.46 in East 8.0 mph 13.0 mph 76% 0.00 in 192.00 W/m2
12:09 -2.0 °F -7.4 °F 30.46 in ENE 3.0 mph 13.0 mph 77% 0.00 in 220.00 W/m2
12:14 -1.4 °F -6.6 °F 30.46 in ENE 4.0 mph 9.0 mph 78% 0.00 in 248.00 W/m2
12:19 -1.3 °F -6.8 °F 30.45 in ENE 7.0 mph 9.0 mph 77% 0.00 in 227.00 W/m2
12:24 -1.4 °F -6.9 °F 30.44 in ENE 8.0 mph 10.0 mph 77% 0.00 in 309.00 W/m2
12:29 -1.2 °F -6.7 °F 30.44 in ENE 5.0 mph 10.0 mph 77% 0.00 in 301.00 W/m2
12:34 -0.8 °F -6.3 °F 30.44 in East 6.0 mph 11.0 mph 77% 0.00 in 294.00 W/m2
12:39 -0.1 °F -5.6 °F 30.43 in East 8.0 mph 14.0 mph 77% 0.00 in 290.00 W/m2
12:44 -0.2 °F -6.0 °F 30.43 in East 7.0 mph 16.0 mph 76% 0.00 in 285.00 W/m2
12:49 -0.1 °F -5.9 °F 30.43 in East 9.0 mph 16.0 mph 76% 0.00 in 281.00 W/m2
12:54 -0.1 °F -5.9 °F 30.43 in ESE 5.0 mph 14.0 mph 76% 0.00 in 279.00 W/m2
12:59 -0.2 °F -6.0 °F 30.43 in East 9.0 mph 14.0 mph 76% 0.00 in 279.00 W/m2
13:04 0.2 °F -5.6 °F 30.42 in ESE 8.0 mph 11.0 mph 76% 0.00 in 281.00 W/m2
13:09 -0.2 °F -6.2 °F 30.42 in East 10.0 mph 12.0 mph 75% 0.00 in 283.00 W/m2
13:14 -0.1 °F -5.9 °F 30.42 in East 10.0 mph 13.0 mph 76% 0.00 in 285.00 W/m2
13:19 -0.2 °F -6.0 °F 30.41 in East 9.0 mph 14.0 mph 76% 0.00 in 287.00 W/m2
13:24 -0.3 °F -6.1 °F 30.41 in East 10.0 mph 15.0 mph 76% 0.00 in 287.00 W/m2
13:29 -0.3 °F -6.1 °F 30.41 in ENE 9.0 mph 15.0 mph 76% 0.00 in 288.00 W/m2
13:34 -0.6 °F -6.4 °F 30.41 in East 10.0 mph 14.0 mph 76% 0.00 in 287.00 W/m2
13:39 -0.3 °F -5.8 °F 30.40 in East 9.0 mph 14.0 mph 77% 0.00 in 288.00 W/m2
13:44 -0.5 °F -6.3 °F 30.40 in East 7.0 mph 14.0 mph 76% 0.00 in 290.00 W/m2
13:49 0.0 °F -5.5 °F 30.40 in East 6.0 mph 14.0 mph 77% 0.00 in 290.00 W/m2
13:54 0.2 °F -5.3 °F 30.41 in East 6.0 mph 11.0 mph 77% 0.00 in 290.00 W/m2
13:59 0.3 °F -5.5 °F 30.40 in East 7.0 mph 14.0 mph 76% 0.00 in 299.00 W/m2
14:04 0.5 °F -5.3 °F 30.40 in East 8.0 mph 14.0 mph 76% 0.00 in 302.00 W/m2
14:09 0.3 °F -5.5 °F 30.39 in ENE 9.0 mph 13.0 mph 76% 0.00 in 295.00 W/m2
14:14 0.4 °F -5.4 °F 30.39 in East 10.0 mph 13.0 mph 76% 0.00 in 301.00 W/m2
14:19 0.5 °F -5.3 °F 30.39 in ENE 9.0 mph 11.0 mph 76% 0.00 in 301.00 W/m2
14:24 0.0 °F -5.8 °F 30.39 in East 8.0 mph 13.0 mph 76% 0.00 in 313.00 W/m2
14:29 0.1 °F -5.7 °F 30.38 in ESE 9.0 mph 13.0 mph 76% 0.00 in 318.00 W/m2
14:34 0.6 °F -4.9 °F 30.38 in East 8.0 mph 13.0 mph 77% 0.00 in 320.00 W/m2
14:39 0.6 °F -5.2 °F 30.37 in East 9.0 mph 12.0 mph 76% 0.00 in 276.00 W/m2
14:44 0.2 °F -5.9 °F 30.37 in East 8.0 mph 13.0 mph 75% 0.00 in 295.00 W/m2
14:49 0.3 °F -5.5 °F 30.37 in East 7.0 mph 13.0 mph 76% 0.00 in 309.00 W/m2
14:54 0.5 °F -5.0 °F 30.37 in ENE 9.0 mph 11.0 mph 77% 0.00 in 374.00 W/m2
14:59 0.2 °F -5.6 °F 30.37 in East 7.0 mph 11.0 mph 76% 0.00 in 299.00 W/m2
15:04 0.1 °F -5.7 °F 30.37 in East 9.0 mph 13.0 mph 76% 0.00 in 225.00 W/m2
15:09 0.0 °F -5.8 °F 30.36 in ENE 9.0 mph 13.0 mph 76% 0.00 in 144.00 W/m2
15:14 -0.5 °F -6.0 °F 30.36 in East 9.0 mph 12.0 mph 77% 0.00 in 232.00 W/m2
15:19 -0.4 °F -5.9 °F 30.36 in ENE 9.0 mph 12.0 mph 77% 0.00 in 323.00 W/m2
15:24 0.0 °F -5.2 °F 30.36 in East 11.0 mph 13.0 mph 78% 0.00 in 329.00 W/m2
15:29 0.2 °F -5.3 °F 30.36 in East 9.0 mph 13.0 mph 77% 0.00 in 336.00 W/m2
15:34 0.3 °F -5.2 °F 30.36 in ENE 10.0 mph 13.0 mph 77% 0.00 in 309.00 W/m2
15:39 0.4 °F -5.1 °F 30.36 in East 11.0 mph 13.0 mph 77% 0.00 in 311.00 W/m2
15:44 0.4 °F -5.1 °F 30.36 in ENE 10.0 mph 13.0 mph 77% 0.00 in 325.00 W/m2
15:49 0.5 °F -5.0 °F 30.36 in East 8.0 mph 13.0 mph 77% 0.00 in 311.00 W/m2
15:54 0.5 °F -5.0 °F 30.35 in ENE 9.0 mph 13.0 mph 77% 0.00 in 315.00 W/m2
15:59 0.3 °F -5.2 °F 30.35 in ESE 7.0 mph 13.0 mph 77% 0.00 in 297.00 W/m2
16:04 0.2 °F -5.3 °F 30.35 in ENE 13.0 mph 13.0 mph 77% 0.00 in 285.00 W/m2
16:09 -0.3 °F -5.8 °F 30.34 in East 10.0 mph 13.0 mph 77% 0.00 in 271.00 W/m2
16:14 -0.3 °F -5.5 °F 30.35 in ENE 7.0 mph 14.0 mph 78% 0.00 in 255.00 W/m2
16:19 -0.9 °F -6.4 °F 30.35 in East 7.0 mph 14.0 mph 77% 0.00 in 58.00 W/m2
16:24 -1.5 °F -6.7 °F 30.34 in ENE 11.0 mph 13.0 mph 78% 0.00 in 54.00 W/m2
16:29 -2.1 °F -7.3 °F 30.34 in ENE 5.0 mph 13.0 mph 78% 0.00 in 54.00 W/m2
16:34 -2.3 °F -7.2 °F 30.34 in ENE 8.0 mph 12.0 mph 79% 0.00 in 62.00 W/m2
16:39 -2.6 °F -7.5 °F 30.34 in ENE 11.0 mph 13.0 mph 79% 0.00 in 53.00 W/m2
16:44 -2.6 °F -7.5 °F 30.34 in ENE 7.0 mph 13.0 mph 79% 0.00 in 53.00 W/m2
16:49 -2.6 °F -7.2 °F 30.34 in ENE 7.0 mph 13.0 mph 80% 0.00 in 51.00 W/m2
16:54 -2.7 °F -7.3 °F 30.34 in ENE 11.0 mph 13.0 mph 80% 0.00 in 47.00 W/m2
16:59 -2.7 °F -7.3 °F 30.34 in East 6.0 mph 13.0 mph 80% 0.00 in 42.00 W/m2
17:04 -2.6 °F -7.2 °F 30.34 in East 6.0 mph 13.0 mph 80% 0.00 in 39.00 W/m2
17:09 -2.6 °F -7.2 °F 30.34 in ENE 7.0 mph 13.0 mph 80% 0.00 in 33.00 W/m2
17:14 -2.6 °F -7.2 °F 30.34 in ENE 7.0 mph 13.0 mph 80% 0.00 in 30.00 W/m2
17:19 -2.7 °F -7.3 °F 30.34 in East 10.0 mph 10.0 mph 80% 0.00 in 26.00 W/m2
17:24 -2.7 °F -7.3 °F 30.34 in East 6.0 mph 11.0 mph 80% 0.00 in 23.00 W/m2
17:29 -2.7 °F -7.1 °F 30.34 in ENE 9.0 mph 11.0 mph 81% 0.00 in 19.00 W/m2
17:34 -2.7 °F -7.1 °F 30.34 in ENE 9.0 mph 11.0 mph 81% 0.00 in 16.00 W/m2
17:39 -2.6 °F -7.0 °F 30.33 in ENE 8.0 mph 11.0 mph 81% 0.00 in 12.00 W/m2
17:44 -2.6 °F -7.0 °F 30.33 in ENE 5.0 mph 11.0 mph 81% 0.00 in 11.00 W/m2
17:49 -2.7 °F -7.1 °F 30.32 in ENE 12.0 mph 14.0 mph 81% 0.00 in 7.00 W/m2
17:54 -2.7 °F -7.1 °F 30.32 in ENE 9.0 mph 14.0 mph 81% 0.00 in 5.00 W/m2
17:59 -2.8 °F -7.2 °F 30.32 in ENE 8.0 mph 14.0 mph 81% 0.00 in 0.00 W/m2
18:04 -2.8 °F -7.2 °F 30.32 in ENE 11.0 mph 15.0 mph 81% 0.00 in 0.00 W/m2
18:09 -2.7 °F -7.1 °F 30.32 in ENE 8.0 mph 15.0 mph 81% 0.00 in 0.00 W/m2
18:14 -2.8 °F -6.9 °F 30.32 in ENE 11.0 mph 17.0 mph 82% 0.00 in 0.00 W/m2
18:19 -2.8 °F -6.9 °F 30.32 in ENE 12.0 mph 17.0 mph 82% 0.00 in 0.00 W/m2
18:24 -2.8 °F -6.9 °F 30.32 in ENE 14.0 mph 15.0 mph 82% 0.00 in 0.00 W/m2
18:29 -3.0 °F -7.1 °F 30.32 in ENE 12.0 mph 15.0 mph 82% 0.00 in 0.00 W/m2
18:34 -3.0 °F -7.1 °F 30.32 in ENE 8.0 mph 15.0 mph 82% 0.00 in 0.00 W/m2
18:39 -3.1 °F -7.2 °F 30.32 in East 10.0 mph 14.0 mph 82% 0.00 in 0.00 W/m2
18:44 -3.2 °F -7.3 °F 30.32 in East 10.0 mph 14.0 mph 82% 0.00 in 0.00 W/m2
18:49 -3.4 °F -7.5 °F 30.32 in East 13.0 mph 13.0 mph 82% 0.00 in 0.00 W/m2
18:54 -3.5 °F -7.6 °F 30.32 in ENE 8.0 mph 13.0 mph 82% 0.00 in 0.00 W/m2
18:59 -3.8 °F -7.9 °F 30.32 in ENE 9.0 mph 13.0 mph 82% 0.00 in 0.00 W/m2
19:04 -4.0 °F -8.1 °F 30.32 in ENE 13.0 mph 14.0 mph 82% 0.00 in 0.00 W/m2
19:09 -4.2 °F -8.3 °F 30.32 in ENE 12.0 mph 15.0 mph 82% 0.00 in 0.00 W/m2
19:14 -4.5 °F -8.6 °F 30.32 in ENE 12.0 mph 15.0 mph 82% 0.00 in 0.00 W/m2
19:19 -4.8 °F -8.9 °F 30.32 in ENE 10.0 mph 14.0 mph 82% 0.00 in 0.00 W/m2
19:24 -5.0 °F -9.1 °F 30.32 in ENE 10.0 mph 14.0 mph 82% 0.00 in 0.00 W/m2
19:29 -5.1 °F -8.9 °F 30.32 in ENE 9.0 mph 15.0 mph 83% 0.00 in 0.00 W/m2
19:34 -5.2 °F -9.0 °F 30.32 in NE 10.0 mph 15.0 mph 83% 0.00 in 0.00 W/m2
19:39 -5.3 °F -9.1 °F 30.32 in ENE 11.0 mph 16.0 mph 83% 0.00 in 0.00 W/m2
19:44 -5.4 °F -9.2 °F 30.32 in East 14.0 mph 16.0 mph 83% 0.00 in 0.00 W/m2
19:49 -5.6 °F -9.4 °F 30.32 in East 11.0 mph 15.0 mph 83% 0.00 in 0.00 W/m2
19:54 -5.8 °F -9.6 °F 30.32 in ENE 9.0 mph 14.0 mph 83% 0.00 in 0.00 W/m2
19:59 -5.9 °F -9.7 °F 30.31 in ENE 9.0 mph 15.0 mph 83% 0.00 in 0.00 W/m2
20:04 -5.9 °F -9.7 °F 30.31 in East 13.0 mph 15.0 mph 83% 0.00 in 0.00 W/m2
20:09 -5.8 °F -9.6 °F 30.31 in ENE 16.0 mph 16.0 mph 83% 0.00 in 0.00 W/m2
20:14 -5.7 °F -9.5 °F 30.31 in ENE 14.0 mph 18.0 mph 83% 0.00 in 0.00 W/m2
20:19 -5.7 °F -9.5 °F 30.31 in East 10.0 mph 18.0 mph 83% 0.00 in 0.00 W/m2
20:24 -5.7 °F -9.5 °F 30.30 in East 14.0 mph 17.0 mph 83% 0.00 in 0.00 W/m2
20:29 -5.7 °F -9.5 °F 30.31 in East 14.0 mph 17.0 mph 83% 0.00 in 0.00 W/m2
20:34 -5.7 °F -9.5 °F 30.31 in East 11.0 mph 17.0 mph 83% 0.00 in 0.00 W/m2
20:39 -6.0 °F -9.8 °F 30.31 in East 8.0 mph 16.0 mph 83% 0.00 in 0.00 W/m2
20:44 -6.6 °F -10.7 °F 30.31 in ENE 10.0 mph 14.0 mph 82% 0.00 in 0.00 W/m2
20:49 -7.1 °F -11.1 °F 30.31 in East 8.0 mph 14.0 mph 82% 0.00 in 0.00 W/m2
20:54 -7.3 °F -11.1 °F 30.31 in East 10.0 mph 13.0 mph 83% 0.00 in 0.00 W/m2
20:59 -7.4 °F -11.2 °F 30.31 in East 8.0 mph 14.0 mph 83% 0.00 in 0.00 W/m2
21:04 -7.3 °F -11.1 °F 30.31 in East 13.0 mph 15.0 mph 83% 0.00 in 0.00 W/m2
21:09 -7.4 °F -11.2 °F 30.31 in ENE 11.0 mph 15.0 mph 83% 0.00 in 0.00 W/m2
21:14 -7.5 °F -11.3 °F 30.31 in East 9.0 mph 14.0 mph 83% 0.00 in 0.00 W/m2
21:19 -7.6 °F -11.4 °F 30.30 in East 9.0 mph 14.0 mph 83% 0.00 in 0.00 W/m2
21:24 -7.7 °F -11.5 °F 30.31 in East 9.0 mph 16.0 mph 83% 0.00 in 0.00 W/m2
21:29 -8.0 °F -11.8 °F 30.31 in East 8.0 mph 16.0 mph 83% 0.00 in 0.00 W/m2
21:34 -8.3 °F -12.1 °F 30.30 in ENE 8.0 mph 15.0 mph 83% 0.00 in 0.00 W/m2
21:39 -8.0 °F -11.8 °F 30.30 in East 11.0 mph 15.0 mph 83% 0.00 in 0.00 W/m2
21:44 -7.7 °F -11.2 °F 30.30 in East 14.0 mph 16.0 mph 84% 0.00 in 0.00 W/m2
21:49 -7.7 °F -11.2 °F 30.30 in East 13.0 mph 17.0 mph 84% 0.00 in 0.00 W/m2
21:54 -7.8 °F -11.6 °F 30.30 in East 15.0 mph 17.0 mph 83% 0.00 in 0.00 W/m2
21:59 -7.8 °F -11.6 °F 30.30 in East 11.0 mph 17.0 mph 83% 0.00 in 0.00 W/m2
22:04 -8.1 °F -11.9 °F 30.30 in East 10.0 mph 17.0 mph 83% 0.00 in 0.00 W/m2
22:09 -8.3 °F -12.1 °F 30.30 in East 10.0 mph 16.0 mph 83% 0.00 in 0.00 W/m2
22:14 -8.4 °F -12.2 °F 30.29 in ENE 10.0 mph 16.0 mph 83% 0.00 in 0.00 W/m2
22:19 -8.3 °F -12.1 °F 30.29 in East 11.0 mph 17.0 mph 83% 0.00 in 0.00 W/m2
22:24 -8.0 °F -11.8 °F 30.29 in East 15.0 mph 18.0 mph 83% 0.00 in 0.00 W/m2
22:29 -7.9 °F -11.4 °F 30.29 in East 8.0 mph 18.0 mph 84% 0.00 in 0.00 W/m2
22:34 -7.7 °F -11.2 °F 30.29 in East 13.0 mph 18.0 mph 84% 0.00 in 0.00 W/m2
22:39 -7.6 °F -11.1 °F 30.29 in East 10.0 mph 19.0 mph 84% 0.00 in 0.00 W/m2
22:44 -7.7 °F -11.2 °F 30.29 in ENE 12.0 mph 19.0 mph 84% 0.00 in 0.00 W/m2
22:49 -7.9 °F -11.7 °F 30.29 in East 10.0 mph 17.0 mph 83% 0.00 in 0.00 W/m2
22:54 -8.5 °F -12.3 °F 30.30 in ESE 9.0 mph 17.0 mph 83% 0.00 in 0.00 W/m2
22:59 -9.0 °F -13.0 °F 30.30 in East 7.0 mph 13.0 mph 82% 0.00 in 0.00 W/m2
23:04 -9.3 °F -13.1 °F 30.30 in East 13.0 mph 13.0 mph 83% 0.00 in 0.00 W/m2
23:09 -9.3 °F -13.1 °F 30.29 in ESE 11.0 mph 13.0 mph 83% 0.00 in 0.00 W/m2
23:14 -9.4 °F -13.2 °F 30.29 in ESE 8.0 mph 14.0 mph 83% 0.00 in 0.00 W/m2
23:19 -9.4 °F -13.2 °F 30.29 in East 8.0 mph 14.0 mph 83% 0.00 in 0.00 W/m2
23:24 -9.4 °F -13.2 °F 30.30 in East 10.0 mph 13.0 mph 83% 0.00 in 0.00 W/m2
23:29 -9.5 °F -13.3 °F 30.29 in East 10.0 mph 13.0 mph 83% 0.00 in 0.00 W/m2
23:34 -9.5 °F -13.3 °F 30.29 in East 9.0 mph 13.0 mph 83% 0.00 in 0.00 W/m2
23:39 -9.6 °F -13.4 °F 30.29 in East 7.0 mph 13.0 mph 83% 0.00 in 0.00 W/m2
23:44 -9.6 °F -13.4 °F 30.29 in East 7.0 mph 11.0 mph 83% 0.00 in 0.00 W/m2
23:49 -9.7 °F -13.5 °F 30.29 in ESE 7.0 mph 11.0 mph 83% 0.00 in 0.00 W/m2
23:54 -9.7 °F -13.5 °F 30.28 in East 7.0 mph 12.0 mph 83% 0.00 in 0.00 W/m2
23:59 -9.7 °F -13.5 °F 30.28 in East 10.0 mph 14.0 mph 83% 0.00 in 0.00 W/m2
Bismarck, North Dakota, USA
Compliments of Weather Underground - 4 mb